Lake Park, FL (33403)

1:59 PM EST on December 25, 2014 (GMT -0500)
Rybovich Boat Company | Change Station
CLOSE
Current Station
Personal Weather Station
Location: West Palm Beach, FL
Elevation: 10 ft
Nearby Weather Stations

Elev 10 ft 26.75 °N, 80.05 °W | Updated 2 seconds ago

Mostly Cloudy
Mostly Cloudy
69.7 °F
Feels Like 69.7 °F
N
8.2
Wind Variable Wind from ENE
Gusts 16.0 mph

Today
High -- | Low -- °F
--% Chance of Precip.
Yesterday
High -- | Low -- °F
Precip. -- in
7:06 AM 5:34 PM
Waxing Crescent, 18% visible
Pressure 30.13 in
Visibility 10.0 miles
Clouds Mostly Cloudy 3500 ft
Mostly Cloudy 5000 ft
Mostly Cloudy 7500 ft
Dew Point 56 °F
Humidity 61%
Rainfall 0.43 in
Snow Depth Not available.
UV 3 out of 12
Pollen 2.90 out of 12
Air Quality Not available.
Flu Activity Not available.
METAR KPBI 251853Z 34012KT 10SM BKN035 BKN050 BKN075 22/11 A3013 RMK AO2 SLP201 T02220111

More Conditions Fewer Conditions

Pressure 30.13 in
Visibility 10.0 miles
Clouds Mostly Cloudy 3500 ft
Mostly Cloudy 5000 ft
Mostly Cloudy 7500 ft
Dew Point 56 °F
Humidity 61%
Rainfall 0.43 in
Snow Depth Not available.
UV 3 out of 12
Pollen 2.90 out of 12
Air Quality Not available.
Flu Activity Not available.
METAR KPBI 251853Z 34012KT 10SM BKN035 BKN050 BKN075 22/11 A3013 RMK AO2 SLP201 T02220111

More Conditions Fewer Conditions

10-Day Weather Forecast

Almanac

Astronomy

Dec. 25, 2014 Rise Set
Actual Time
Civil Twilight
Nautical Twilight
Astronomical Twilight
Moon
Length of Visible Light
Length of Day
Tomorrow will be .
, % of the Moon is Illuminated

Today's Extremes

State Highs State Lows

Community

WunderPhotos

Upload Photos

1,780,358 photos uploaded!

WunderBlogs® & News

Nearby

Air Quality

  Air Quality AQ Index Pollutant
Not available.

Snow Depth

Station Depth Elevation

Earthquake Activity

City Distance Mag. Time & Date
Minimum magnitude displayed is 2.5.

Coastal Water Temperatures

Place Temperature

Nearby Weather Stations